Terminal Aerodrome Forecast
Issued by NWS Chicago, IL

Home | Current Version | Previous Version | Text Only | Print | Product List | Glossary Off
Versions: 1 2 3 4 5 6 7 8 9 10 11 12 13 14 15 16 17 18 19 20 21 22 23 24 25 26 27 28

329
FTUS43 KLOT 241742
TAFRFD
TAF
KRFD 241742Z 2418/2518 10007KT P6SM BKN018
     FM242100 11009KT P6SM BKN035
     FM250200 12005KT P6SM BKN050
     FM251100 14007KT 5SM BR VCSH BKN015
     FM251400 16008KT P6SM SCT020 BKN200=

USA.gov is the U.S. government's official web portal to all federal, state and local government web resources and services.